sensor_id;sensor_type;location;lat;lon;timestamp;temperature;humidity
78297;DHT22;67555;47.660;19.622;2023-05-14T00:00:23;10.90;70.70
78297;DHT22;67555;47.660;19.622;2023-05-14T00:02:48;10.90;70.70
78297;DHT22;67555;47.660;19.622;2023-05-14T00:05:14;10.90;70.70
78297;DHT22;67555;47.660;19.622;2023-05-14T00:07:40;10.90;70.70
78297;DHT22;67555;47.660;19.622;2023-05-14T00:10:06;11.00;70.70
78297;DHT22;67555;47.660;19.622;2023-05-14T00:12:32;11.00;70.60
78297;DHT22;67555;47.660;19.622;2023-05-14T00:14:58;11.00;70.60
78297;DHT22;67555;47.660;19.622;2023-05-14T00:17:24;10.90;70.90
78297;DHT22;67555;47.660;19.622;2023-05-14T00:19:49;10.80;71.20
78297;DHT22;67555;47.660;19.622;2023-05-14T00:22:15;10.70;71.50
78297;DHT22;67555;47.660;19.622;2023-05-14T00:24:41;10.70;71.50
78297;DHT22;67555;47.660;19.622;2023-05-14T00:27:07;10.70;71.50
78297;DHT22;67555;47.660;19.622;2023-05-14T00:29:34;10.70;71.50
78297;DHT22;67555;47.660;19.622;2023-05-14T00:32:00;10.70;71.60
78297;DHT22;67555;47.660;19.622;2023-05-14T00:34:25;10.70;71.70
78297;DHT22;67555;47.660;19.622;2023-05-14T00:36:51;10.70;71.80
78297;DHT22;67555;47.660;19.622;2023-05-14T00:39:17;10.80;71.70
78297;DHT22;67555;47.660;19.622;2023-05-14T00:41:42;11.00;71.60
78297;DHT22;67555;47.660;19.622;2023-05-14T00:44:08;11.10;71.40
78297;DHT22;67555;47.660;19.622;2023-05-14T00:46:34;11.10;71.40
78297;DHT22;67555;47.660;19.622;2023-05-14T00:49:00;11.20;71.20
78297;DHT22;67555;47.660;19.622;2023-05-14T00:51:25;11.40;70.90
78297;DHT22;67555;47.660;19.622;2023-05-14T00:53:52;11.50;70.60
78297;DHT22;67555;47.660;19.622;2023-05-14T00:56:18;11.50;70.40
78297;DHT22;67555;47.660;19.622;2023-05-14T00:58:44;11.50;70.50
78297;DHT22;67555;47.660;19.622;2023-05-14T01:01:10;11.50;70.80
78297;DHT22;67555;47.660;19.622;2023-05-14T01:03:36;11.50;70.90
78297;DHT22;67555;47.660;19.622;2023-05-14T01:09:28;11.50;71.10
78297;DHT22;67555;47.660;19.622;2023-05-14T01:12:13;11.40;71.30
78297;DHT22;67555;47.660;19.622;2023-05-14T01:17:24;11.30;71.60
78297;DHT22;67555;47.660;19.622;2023-05-14T01:19:51;11.10;72.00
78297;DHT22;67555;47.660;19.622;2023-05-14T01:22:17;11.00;72.40
78297;DHT22;67555;47.660;19.622;2023-05-14T01:24:44;11.00;72.50
78297;DHT22;67555;47.660;19.622;2023-05-14T01:27:23;11.10;72.40
78297;DHT22;67555;47.660;19.622;2023-05-14T01:30:18;11.00;72.60
78297;DHT22;67555;47.660;19.622;2023-05-14T01:32:49;11.00;72.70
78297;DHT22;67555;47.660;19.622;2023-05-14T01:35:16;10.90;72.90
78297;DHT22;67555;47.660;19.622;2023-05-14T01:37:43;10.90;73.20
78297;DHT22;67555;47.660;19.622;2023-05-14T01:40:10;10.90;73.30
78297;DHT22;67555;47.660;19.622;2023-05-14T01:42:37;10.80;73.40
78297;DHT22;67555;47.660;19.622;2023-05-14T01:45:03;10.80;73.50
78297;DHT22;67555;47.660;19.622;2023-05-14T01:47:29;10.70;73.60
78297;DHT22;67555;47.660;19.622;2023-05-14T01:49:54;10.70;73.60
78297;DHT22;67555;47.660;19.622;2023-05-14T01:52:20;10.70;73.60
78297;DHT22;67555;47.660;19.622;2023-05-14T01:54:47;10.70;73.60
78297;DHT22;67555;47.660;19.622;2023-05-14T01:57:12;10.80;73.50
78297;DHT22;67555;47.660;19.622;2023-05-14T01:59:38;10.80;73.50
78297;DHT22;67555;47.660;19.622;2023-05-14T02:02:04;10.80;73.50
78297;DHT22;67555;47.660;19.622;2023-05-14T02:04:30;10.80;73.40
78297;DHT22;67555;47.660;19.622;2023-05-14T02:06:55;10.80;73.40
78297;DHT22;67555;47.660;19.622;2023-05-14T02:09:21;10.80;73.50
78297;DHT22;67555;47.660;19.622;2023-05-14T02:11:47;10.90;73.40
78297;DHT22;67555;47.660;19.622;2023-05-14T02:14:13;10.90;73.40
78297;DHT22;67555;47.660;19.622;2023-05-14T02:16:39;11.00;73.30
78297;DHT22;67555;47.660;19.622;2023-05-14T02:19:05;11.10;73.20
78297;DHT22;67555;47.660;19.622;2023-05-14T02:21:31;11.10;73.00
78297;DHT22;67555;47.660;19.622;2023-05-14T02:23:57;11.10;73.10
78297;DHT22;67555;47.660;19.622;2023-05-14T02:26:22;11.10;73.20
78297;DHT22;67555;47.660;19.622;2023-05-14T02:28:48;11.20;73.10
78297;DHT22;67555;47.660;19.622;2023-05-14T02:31:14;11.20;73.20
78297;DHT22;67555;47.660;19.622;2023-05-14T02:33:41;11.20;73.20
78297;DHT22;67555;47.660;19.622;2023-05-14T02:36:07;11.20;73.30
78297;DHT22;67555;47.660;19.622;2023-05-14T02:38:33;11.30;73.20
78297;DHT22;67555;47.660;19.622;2023-05-14T02:40:59;11.40;73.10
78297;DHT22;67555;47.660;19.622;2023-05-14T02:43:24;11.40;73.00
78297;DHT22;67555;47.660;19.622;2023-05-14T02:45:50;11.40;73.00
78297;DHT22;67555;47.660;19.622;2023-05-14T02:48:16;11.40;73.00
78297;DHT22;67555;47.660;19.622;2023-05-14T02:50:41;11.50;73.00
78297;DHT22;67555;47.660;19.622;2023-05-14T02:53:07;11.50;72.80
78297;DHT22;67555;47.660;19.622;2023-05-14T02:55:33;11.60;72.70
78297;DHT22;67555;47.660;19.622;2023-05-14T02:57:59;11.60;72.60
78297;DHT22;67555;47.660;19.622;2023-05-14T03:00:25;11.70;72.50
78297;DHT22;67555;47.660;19.622;2023-05-14T03:02:51;11.70;72.30
78297;DHT22;67555;47.660;19.622;2023-05-14T03:05:16;11.90;72.20
78297;DHT22;67555;47.660;19.622;2023-05-14T03:07:42;11.90;72.00
78297;DHT22;67555;47.660;19.622;2023-05-14T03:10:08;12.00;71.70
78297;DHT22;67555;47.660;19.622;2023-05-14T03:12:34;12.10;71.60
78297;DHT22;67555;47.660;19.622;2023-05-14T03:14:59;12.10;71.50
78297;DHT22;67555;47.660;19.622;2023-05-14T03:17:25;12.10;71.50
78297;DHT22;67555;47.660;19.622;2023-05-14T03:19:51;12.10;71.50
78297;DHT22;67555;47.660;19.622;2023-05-14T03:22:16;12.10;71.50
78297;DHT22;67555;47.660;19.622;2023-05-14T03:24:42;12.00;71.50
78297;DHT22;67555;47.660;19.622;2023-05-14T03:27:08;12.00;71.70
78297;DHT22;67555;47.660;19.622;2023-05-14T03:29:34;11.90;72.10
78297;DHT22;67555;47.660;19.622;2023-05-14T03:31:59;11.70;72.50
78297;DHT22;67555;47.660;19.622;2023-05-14T03:34:25;11.50;72.70
78297;DHT22;67555;47.660;19.622;2023-05-14T03:36:51;11.40;73.20
78297;DHT22;67555;47.660;19.622;2023-05-14T03:39:17;11.30;73.70
78297;DHT22;67555;47.660;19.622;2023-05-14T03:41:46;11.20;73.90
78297;DHT22;67555;47.660;19.622;2023-05-14T03:44:12;11.30;74.00
78297;DHT22;67555;47.660;19.622;2023-05-14T03:46:38;11.30;73.90
78297;DHT22;67555;47.660;19.622;2023-05-14T03:49:06;11.40;73.90
78297;DHT22;67555;47.660;19.622;2023-05-14T03:51:32;11.40;73.70
78297;DHT22;67555;47.660;19.622;2023-05-14T03:53:57;11.50;73.70
78297;DHT22;67555;47.660;19.622;2023-05-14T03:56:24;11.50;73.60
78297;DHT22;67555;47.660;19.622;2023-05-14T03:58:51;11.50;73.60
78297;DHT22;67555;47.660;19.622;2023-05-14T04:01:16;11.70;73.50
78297;DHT22;67555;47.660;19.622;2023-05-14T04:03:42;11.80;73.20
78297;DHT22;67555;47.660;19.622;2023-05-14T04:06:08;11.80;73.00
78297;DHT22;67555;47.660;19.622;2023-05-14T04:08:34;11.90;73.00
78297;DHT22;67555;47.660;19.622;2023-05-14T04:11:00;11.90;72.90
78297;DHT22;67555;47.660;19.622;2023-05-14T04:13:25;12.00;72.70
78297;DHT22;67555;47.660;19.622;2023-05-14T04:15:51;12.10;72.50
78297;DHT22;67555;47.660;19.622;2023-05-14T04:18:17;12.10;72.60
78297;DHT22;67555;47.660;19.622;2023-05-14T04:20:43;12.10;72.70
78297;DHT22;67555;47.660;19.622;2023-05-14T04:23:09;12.10;72.90
78297;DHT22;67555;47.660;19.622;2023-05-14T04:25:35;12.10;73.00
78297;DHT22;67555;47.660;19.622;2023-05-14T04:28:01;12.20;72.80
78297;DHT22;67555;47.660;19.622;2023-05-14T04:30:27;12.20;72.70
78297;DHT22;67555;47.660;19.622;2023-05-14T04:32:52;12.20;72.80
78297;DHT22;67555;47.660;19.622;2023-05-14T04:35:18;12.10;73.20
78297;DHT22;67555;47.660;19.622;2023-05-14T04:37:45;12.10;73.30
78297;DHT22;67555;47.660;19.622;2023-05-14T04:40:10;12.00;73.50
78297;DHT22;67555;47.660;19.622;2023-05-14T04:42:37;12.00;73.60
78297;DHT22;67555;47.660;19.622;2023-05-14T04:45:05;12.10;73.60
78297;DHT22;67555;47.660;19.622;2023-05-14T04:47:31;12.10;73.50
78297;DHT22;67555;47.660;19.622;2023-05-14T04:49:57;12.10;73.60
78297;DHT22;67555;47.660;19.622;2023-05-14T04:52:24;12.10;73.70
78297;DHT22;67555;47.660;19.622;2023-05-14T04:54:50;12.10;73.80
78297;DHT22;67555;47.660;19.622;2023-05-14T04:57:16;12.20;73.70
78297;DHT22;67555;47.660;19.622;2023-05-14T04:59:41;12.30;73.50
78297;DHT22;67555;47.660;19.622;2023-05-14T05:02:07;12.30;73.60
78297;DHT22;67555;47.660;19.622;2023-05-14T05:04:33;12.30;73.70
78297;DHT22;67555;47.660;19.622;2023-05-14T05:06:59;12.50;73.60
78297;DHT22;67555;47.660;19.622;2023-05-14T05:09:24;12.50;73.30
78297;DHT22;67555;47.660;19.622;2023-05-14T05:11:50;12.70;73.10
78297;DHT22;67555;47.660;19.622;2023-05-14T05:14:16;12.80;73.00
78297;DHT22;67555;47.660;19.622;2023-05-14T05:16:42;12.90;72.80
78297;DHT22;67555;47.660;19.622;2023-05-14T05:19:07;13.10;72.50
78297;DHT22;67555;47.660;19.622;2023-05-14T05:21:34;13.30;72.10
78297;DHT22;67555;47.660;19.622;2023-05-14T05:23:59;13.50;71.50
78297;DHT22;67555;47.660;19.622;2023-05-14T05:26:26;13.60;71.00
78297;DHT22;67555;47.660;19.622;2023-05-14T05:28:52;13.80;70.40
78297;DHT22;67555;47.660;19.622;2023-05-14T05:31:18;14.00;69.70
78297;DHT22;67555;47.660;19.622;2023-05-14T05:33:44;14.10;69.20
78297;DHT22;67555;47.660;19.622;2023-05-14T05:36:09;14.20;68.70
78297;DHT22;67555;47.660;19.622;2023-05-14T05:38:35;14.30;68.20
78297;DHT22;67555;47.660;19.622;2023-05-14T05:41:01;14.40;67.60
78297;DHT22;67555;47.660;19.622;2023-05-14T05:43:26;14.50;67.40
78297;DHT22;67555;47.660;19.622;2023-05-14T05:45:55;14.60;67.00
78297;DHT22;67555;47.660;19.622;2023-05-14T05:48:20;14.70;66.60
78297;DHT22;67555;47.660;19.622;2023-05-14T05:50:48;14.90;66.20
78297;DHT22;67555;47.660;19.622;2023-05-14T05:53:14;15.00;65.80
78297;DHT22;67555;47.660;19.622;2023-05-14T05:55:41;15.10;65.30
78297;DHT22;67555;47.660;19.622;2023-05-14T05:58:07;15.20;65.00
78297;DHT22;67555;47.660;19.622;2023-05-14T06:00:32;15.20;64.80
78297;DHT22;67555;47.660;19.622;2023-05-14T06:02:58;15.30;64.50
78297;DHT22;67555;47.660;19.622;2023-05-14T06:05:24;15.40;64.20
78297;DHT22;67555;47.660;19.622;2023-05-14T06:07:50;15.40;63.90
78297;DHT22;67555;47.660;19.622;2023-05-14T06:10:18;15.40;63.60
78297;DHT22;67555;47.660;19.622;2023-05-14T06:12:43;15.40;63.60
78297;DHT22;67555;47.660;19.622;2023-05-14T06:15:10;15.40;63.50
78297;DHT22;67555;47.660;19.622;2023-05-14T06:17:36;15.40;63.30
78297;DHT22;67555;47.660;19.622;2023-05-14T06:20:03;15.50;63.20
78297;DHT22;67555;47.660;19.622;2023-05-14T06:22:30;15.60;63.00
78297;DHT22;67555;47.660;19.622;2023-05-14T06:24:56;15.60;62.80
78297;DHT22;67555;47.660;19.622;2023-05-14T06:27:21;15.70;62.60
78297;DHT22;67555;47.660;19.622;2023-05-14T06:29:47;15.80;62.20
78297;DHT22;67555;47.660;19.622;2023-05-14T06:32:13;15.80;62.10
78297;DHT22;67555;47.660;19.622;2023-05-14T06:34:40;15.80;62.10
78297;DHT22;67555;47.660;19.622;2023-05-14T06:37:07;15.80;62.00
78297;DHT22;67555;47.660;19.622;2023-05-14T06:39:34;15.80;61.90
78297;DHT22;67555;47.660;19.622;2023-05-14T06:42:00;15.80;62.10
78297;DHT22;67555;47.660;19.622;2023-05-14T06:44:26;15.80;61.90
78297;DHT22;67555;47.660;19.622;2023-05-14T06:46:52;15.80;61.80
78297;DHT22;67555;47.660;19.622;2023-05-14T06:49:18;15.90;61.70
78297;DHT22;67555;47.660;19.622;2023-05-14T06:51:44;16.00;61.50
78297;DHT22;67555;47.660;19.622;2023-05-14T06:54:10;16.10;61.30
78297;DHT22;67555;47.660;19.622;2023-05-14T06:56:36;16.20;61.00
78297;DHT22;67555;47.660;19.622;2023-05-14T06:59:01;16.20;60.80
78297;DHT22;67555;47.660;19.622;2023-05-14T07:01:27;16.30;60.60
78297;DHT22;67555;47.660;19.622;2023-05-14T07:03:53;16.30;60.40
78297;DHT22;67555;47.660;19.622;2023-05-14T07:06:19;16.30;60.40
78297;DHT22;67555;47.660;19.622;2023-05-14T07:08:44;16.40;60.40
78297;DHT22;67555;47.660;19.622;2023-05-14T07:11:11;16.40;60.40
78297;DHT22;67555;47.660;19.622;2023-05-14T07:13:38;16.40;60.20
78297;DHT22;67555;47.660;19.622;2023-05-14T07:16:04;16.40;60.20
78297;DHT22;67555;47.660;19.622;2023-05-14T07:18:30;16.40;60.30
78297;DHT22;67555;47.660;19.622;2023-05-14T07:20:56;16.40;60.20
78297;DHT22;67555;47.660;19.622;2023-05-14T07:23:21;16.50;60.10
78297;DHT22;67555;47.660;19.622;2023-05-14T07:25:47;16.60;60.00
78297;DHT22;67555;47.660;19.622;2023-05-14T07:28:13;16.70;59.80
78297;DHT22;67555;47.660;19.622;2023-05-14T07:30:39;16.80;59.60
78297;DHT22;67555;47.660;19.622;2023-05-14T07:33:04;16.90;59.40
78297;DHT22;67555;47.660;19.622;2023-05-14T07:35:30;17.00;59.40
78297;DHT22;67555;47.660;19.622;2023-05-14T07:37:56;17.00;59.20
78297;DHT22;67555;47.660;19.622;2023-05-14T07:40:21;17.10;59.10
78297;DHT22;67555;47.660;19.622;2023-05-14T07:42:49;17.20;58.90
78297;DHT22;67555;47.660;19.622;2023-05-14T07:45:15;17.30;58.70
78297;DHT22;67555;47.660;19.622;2023-05-14T07:47:41;17.40;58.70
78297;DHT22;67555;47.660;19.622;2023-05-14T07:50:07;17.50;58.50
78297;DHT22;67555;47.660;19.622;2023-05-14T07:52:33;17.50;58.40
78297;DHT22;67555;47.660;19.622;2023-05-14T07:54:59;17.60;58.40
78297;DHT22;67555;47.660;19.622;2023-05-14T07:57:26;17.80;58.10
78297;DHT22;67555;47.660;19.622;2023-05-14T07:59:52;17.90;58.00
78297;DHT22;67555;47.660;19.622;2023-05-14T08:02:17;18.00;57.90
78297;DHT22;67555;47.660;19.622;2023-05-14T08:04:43;18.20;57.60
78297;DHT22;67555;47.660;19.622;2023-05-14T08:07:09;18.40;57.40
78297;DHT22;67555;47.660;19.622;2023-05-14T08:09:35;18.50;57.10
78297;DHT22;67555;47.660;19.622;2023-05-14T08:12:01;18.70;56.80
78297;DHT22;67555;47.660;19.622;2023-05-14T08:14:27;18.70;56.70
78297;DHT22;67555;47.660;19.622;2023-05-14T08:16:53;18.80;56.40
78297;DHT22;67555;47.660;19.622;2023-05-14T08:19:18;18.90;56.20
78297;DHT22;67555;47.660;19.622;2023-05-14T08:21:44;18.90;56.10
78297;DHT22;67555;47.660;19.622;2023-05-14T08:24:10;19.00;55.80
78297;DHT22;67555;47.660;19.622;2023-05-14T08:26:36;19.00;55.60
78297;DHT22;67555;47.660;19.622;2023-05-14T08:29:03;19.10;55.50
78297;DHT22;67555;47.660;19.622;2023-05-14T08:31:29;19.40;55.10
78297;DHT22;67555;47.660;19.622;2023-05-14T08:33:55;19.50;54.70
78297;DHT22;67555;47.660;19.622;2023-05-14T08:36:21;19.70;54.20
78297;DHT22;67555;47.660;19.622;2023-05-14T08:38:46;20.00;53.80
78297;DHT22;67555;47.660;19.622;2023-05-14T08:41:14;20.10;53.40
78297;DHT22;67555;47.660;19.622;2023-05-14T08:43:54;20.30;53.10
78297;DHT22;67555;47.660;19.622;2023-05-14T08:46:22;20.40;52.70
78297;DHT22;67555;47.660;19.622;2023-05-14T08:48:54;20.50;52.50
78297;DHT22;67555;47.660;19.622;2023-05-14T08:51:22;20.60;52.30
78297;DHT22;67555;47.660;19.622;2023-05-14T08:53:48;20.80;52.10
78297;DHT22;67555;47.660;19.622;2023-05-14T08:56:15;21.00;51.70
78297;DHT22;67555;47.660;19.622;2023-05-14T08:58:42;21.10;51.30
78297;DHT22;67555;47.660;19.622;2023-05-14T09:01:08;21.10;51.00
78297;DHT22;67555;47.660;19.622;2023-05-14T09:03:35;21.20;50.70
78297;DHT22;67555;47.660;19.622;2023-05-14T09:06:01;21.30;50.50
78297;DHT22;67555;47.660;19.622;2023-05-14T09:08:28;21.40;50.40
78297;DHT22;67555;47.660;19.622;2023-05-14T09:10:54;21.50;50.20
78297;DHT22;67555;47.660;19.622;2023-05-14T09:13:20;21.60;50.00
78297;DHT22;67555;47.660;19.622;2023-05-14T09:15:47;21.70;49.70
78297;DHT22;67555;47.660;19.622;2023-05-14T09:18:14;21.70;49.40
78297;DHT22;67555;47.660;19.622;2023-05-14T09:20:40;21.50;49.50
78297;DHT22;67555;47.660;19.622;2023-05-14T09:23:05;21.50;49.60
78297;DHT22;67555;47.660;19.622;2023-05-14T09:25:32;21.50;49.50
78297;DHT22;67555;47.660;19.622;2023-05-14T09:27:58;21.50;49.70
78297;DHT22;67555;47.660;19.622;2023-05-14T09:30:24;21.50;49.60
78297;DHT22;67555;47.660;19.622;2023-05-14T09:32:52;21.30;49.60
78297;DHT22;67555;47.660;19.622;2023-05-14T09:35:23;21.00;49.80
78297;DHT22;67555;47.660;19.622;2023-05-14T09:37:51;20.70;50.10
78297;DHT22;67555;47.660;19.622;2023-05-14T09:40:18;20.50;50.50
78297;DHT22;67555;47.660;19.622;2023-05-14T09:42:44;20.50;50.70
78297;DHT22;67555;47.660;19.622;2023-05-14T09:45:10;20.40;50.80
78297;DHT22;67555;47.660;19.622;2023-05-14T09:47:37;20.30;50.90
78297;DHT22;67555;47.660;19.622;2023-05-14T09:50:03;20.10;51.10
78297;DHT22;67555;47.660;19.622;2023-05-14T09:52:29;20.10;51.20
78297;DHT22;67555;47.660;19.622;2023-05-14T09:54:55;20.10;51.20
78297;DHT22;67555;47.660;19.622;2023-05-14T09:57:21;20.10;51.20
78297;DHT22;67555;47.660;19.622;2023-05-14T09:59:47;20.00;51.50
78297;DHT22;67555;47.660;19.622;2023-05-14T10:02:22;19.90;51.70
78297;DHT22;67555;47.660;19.622;2023-05-14T10:04:49;19.70;52.10
78297;DHT22;67555;47.660;19.622;2023-05-14T10:07:20;19.50;52.50
78297;DHT22;67555;47.660;19.622;2023-05-14T10:09:47;19.50;52.70
78297;DHT22;67555;47.660;19.622;2023-05-14T10:12:15;19.30;53.00
78297;DHT22;67555;47.660;19.622;2023-05-14T10:14:47;19.20;53.30
78297;DHT22;67555;47.660;19.622;2023-05-14T10:17:20;19.10;53.50
78297;DHT22;67555;47.660;19.622;2023-05-14T10:19:57;19.00;53.80
78297;DHT22;67555;47.660;19.622;2023-05-14T10:22:26;18.90;54.00
78297;DHT22;67555;47.660;19.622;2023-05-14T10:24:53;18.90;54.20
78297;DHT22;67555;47.660;19.622;2023-05-14T10:27:20;18.80;54.50
78297;DHT22;67555;47.660;19.622;2023-05-14T10:29:53;18.80;54.70
78297;DHT22;67555;47.660;19.622;2023-05-14T10:32:21;18.80;54.80
78297;DHT22;67555;47.660;19.622;2023-05-14T10:34:48;18.90;54.70
78297;DHT22;67555;47.660;19.622;2023-05-14T10:37:21;19.00;54.80
78297;DHT22;67555;47.660;19.622;2023-05-14T10:40:13;18.90;54.90
78297;DHT22;67555;47.660;19.622;2023-05-14T10:42:39;18.80;55.00
78297;DHT22;67555;47.660;19.622;2023-05-14T10:45:14;18.90;55.10
78297;DHT22;67555;47.660;19.622;2023-05-14T10:47:46;19.00;55.00
78297;DHT22;67555;47.660;19.622;2023-05-14T10:50:14;19.10;55.00
78297;DHT22;67555;47.660;19.622;2023-05-14T10:52:44;19.30;55.10
78297;DHT22;67555;47.660;19.622;2023-05-14T10:55:14;19.50;55.10
78297;DHT22;67555;47.660;19.622;2023-05-14T10:57:44;19.50;54.80
78297;DHT22;67555;47.660;19.622;2023-05-14T11:00:11;19.60;54.80
78297;DHT22;67555;47.660;19.622;2023-05-14T11:02:39;19.60;54.90
78297;DHT22;67555;47.660;19.622;2023-05-14T11:05:13;19.70;54.80
78297;DHT22;67555;47.660;19.622;2023-05-14T11:07:43;19.70;55.10
78297;DHT22;67555;47.660;19.622;2023-05-14T11:10:16;19.70;55.20
78297;DHT22;67555;47.660;19.622;2023-05-14T11:12:44;19.70;55.30
78297;DHT22;67555;47.660;19.622;2023-05-14T11:15:17;19.60;55.30
78297;DHT22;67555;47.660;19.622;2023-05-14T11:17:44;19.50;55.50
78297;DHT22;67555;47.660;19.622;2023-05-14T11:20:11;19.50;55.60
78297;DHT22;67555;47.660;19.622;2023-05-14T11:22:38;19.60;55.70
78297;DHT22;67555;47.660;19.622;2023-05-14T11:25:05;19.70;55.60
78297;DHT22;67555;47.660;19.622;2023-05-14T11:27:36;19.70;55.70
78297;DHT22;67555;47.660;19.622;2023-05-14T11:30:02;19.70;55.80
78297;DHT22;67555;47.660;19.622;2023-05-14T11:32:31;19.70;55.80
78297;DHT22;67555;47.660;19.622;2023-05-14T11:34:56;19.70;55.80
78297;DHT22;67555;47.660;19.622;2023-05-14T11:37:22;19.70;55.80
78297;DHT22;67555;47.660;19.622;2023-05-14T11:39:53;19.70;55.90
78297;DHT22;67555;47.660;19.622;2023-05-14T11:42:19;19.70;56.00
78297;DHT22;67555;47.660;19.622;2023-05-14T11:44:50;19.50;56.20
78297;DHT22;67555;47.660;19.622;2023-05-14T11:47:17;19.40;56.60
78297;DHT22;67555;47.660;19.622;2023-05-14T11:49:44;19.30;56.80
78297;DHT22;67555;47.660;19.622;2023-05-14T11:52:12;19.20;57.00
78297;DHT22;67555;47.660;19.622;2023-05-14T11:54:40;19.10;57.40
78297;DHT22;67555;47.660;19.622;2023-05-14T11:57:14;19.10;57.70
78297;DHT22;67555;47.660;19.622;2023-05-14T11:59:40;19.00;57.90
78297;DHT22;67555;47.660;19.622;2023-05-14T12:02:10;18.90;58.20
78297;DHT22;67555;47.660;19.622;2023-05-14T12:04:36;18.80;58.50
78297;DHT22;67555;47.660;19.622;2023-05-14T12:07:08;18.80;58.90
78297;DHT22;67555;47.660;19.622;2023-05-14T12:09:37;18.70;59.20
78297;DHT22;67555;47.660;19.622;2023-05-14T12:12:10;18.70;59.40
78297;DHT22;67555;47.660;19.622;2023-05-14T12:14:37;18.60;59.70
78297;DHT22;67555;47.660;19.622;2023-05-14T12:17:10;18.50;60.00
78297;DHT22;67555;47.660;19.622;2023-05-14T12:19:39;18.40;60.40
78297;DHT22;67555;47.660;19.622;2023-05-14T12:22:07;18.40;60.70
78297;DHT22;67555;47.660;19.622;2023-05-14T12:24:33;18.40;60.90
78297;DHT22;67555;47.660;19.622;2023-05-14T12:27:00;18.40;61.20
78297;DHT22;67555;47.660;19.622;2023-05-14T12:29:26;18.40;61.40
78297;DHT22;67555;47.660;19.622;2023-05-14T12:31:52;18.30;61.70
78297;DHT22;67555;47.660;19.622;2023-05-14T12:34:18;18.30;61.90
78297;DHT22;67555;47.660;19.622;2023-05-14T12:36:44;18.30;62.00
78297;DHT22;67555;47.660;19.622;2023-05-14T12:39:10;18.20;62.30
78297;DHT22;67555;47.660;19.622;2023-05-14T12:41:36;18.20;62.60
78297;DHT22;67555;47.660;19.622;2023-05-14T12:44:03;18.20;62.70
78297;DHT22;67555;47.660;19.622;2023-05-14T12:46:29;18.20;63.00
78297;DHT22;67555;47.660;19.622;2023-05-14T12:48:56;18.20;63.00
78297;DHT22;67555;47.660;19.622;2023-05-14T12:51:22;18.10;63.20
78297;DHT22;67555;47.660;19.622;2023-05-14T12:53:47;18.10;63.40
78297;DHT22;67555;47.660;19.622;2023-05-14T12:56:14;18.10;63.60
78297;DHT22;67555;47.660;19.622;2023-05-14T12:58:40;18.10;63.80
78297;DHT22;67555;47.660;19.622;2023-05-14T13:01:06;18.00;64.00
78297;DHT22;67555;47.660;19.622;2023-05-14T13:03:32;18.00;64.20
78297;DHT22;67555;47.660;19.622;2023-05-14T13:05:58;18.00;64.50
78297;DHT22;67555;47.660;19.622;2023-05-14T13:08:24;18.00;64.60
78297;DHT22;67555;47.660;19.622;2023-05-14T13:10:54;17.90;64.90
78297;DHT22;67555;47.660;19.622;2023-05-14T13:13:21;17.80;65.10
78297;DHT22;67555;47.660;19.622;2023-05-14T13:15:46;17.80;65.30
78297;DHT22;67555;47.660;19.622;2023-05-14T13:18:13;17.80;65.40
78297;DHT22;67555;47.660;19.622;2023-05-14T13:20:38;17.80;65.50
78297;DHT22;67555;47.660;19.622;2023-05-14T13:23:05;17.80;65.80
78297;DHT22;67555;47.660;19.622;2023-05-14T13:25:30;17.70;66.00
78297;DHT22;67555;47.660;19.622;2023-05-14T13:27:56;17.60;66.10
78297;DHT22;67555;47.660;19.622;2023-05-14T13:30:22;17.60;66.20
78297;DHT22;67555;47.660;19.622;2023-05-14T13:32:48;17.50;66.50
78297;DHT22;67555;47.660;19.622;2023-05-14T13:35:13;17.50;66.70
78297;DHT22;67555;47.660;19.622;2023-05-14T13:37:39;17.40;67.00
78297;DHT22;67555;47.660;19.622;2023-05-14T13:40:05;17.40;67.10
78297;DHT22;67555;47.660;19.622;2023-05-14T13:42:35;17.40;67.20
78297;DHT22;67555;47.660;19.622;2023-05-14T13:45:01;17.20;67.50
78297;DHT22;67555;47.660;19.622;2023-05-14T13:47:27;17.20;67.80
78297;DHT22;67555;47.660;19.622;2023-05-14T13:49:53;17.20;67.90
78297;DHT22;67555;47.660;19.622;2023-05-14T13:52:19;17.20;68.00
78297;DHT22;67555;47.660;19.622;2023-05-14T13:54:44;17.20;68.10
78297;DHT22;67555;47.660;19.622;2023-05-14T13:57:10;17.10;68.30
78297;DHT22;67555;47.660;19.622;2023-05-14T13:59:36;17.00;68.50
78297;DHT22;67555;47.660;19.622;2023-05-14T14:02:02;17.00;68.80
78297;DHT22;67555;47.660;19.622;2023-05-14T14:04:28;17.00;69.00
78297;DHT22;67555;47.660;19.622;2023-05-14T14:06:54;16.90;69.40
78297;DHT22;67555;47.660;19.622;2023-05-14T14:09:20;16.90;69.70
78297;DHT22;67555;47.660;19.622;2023-05-14T14:11:46;16.90;69.90
78297;DHT22;67555;47.660;19.622;2023-05-14T14:14:12;16.90;70.00
78297;DHT22;67555;47.660;19.622;2023-05-14T14:16:38;16.90;70.00
78297;DHT22;67555;47.660;19.622;2023-05-14T14:19:03;16.90;70.00
78297;DHT22;67555;47.660;19.622;2023-05-14T14:21:29;16.80;70.20
78297;DHT22;67555;47.660;19.622;2023-05-14T14:23:56;16.80;70.30
78297;DHT22;67555;47.660;19.622;2023-05-14T14:26:23;16.70;70.40
78297;DHT22;67555;47.660;19.622;2023-05-14T14:28:49;16.60;70.40
78297;DHT22;67555;47.660;19.622;2023-05-14T14:31:15;16.60;70.40
78297;DHT22;67555;47.660;19.622;2023-05-14T14:33:41;16.50;70.40
78297;DHT22;67555;47.660;19.622;2023-05-14T14:36:07;16.40;70.50
78297;DHT22;67555;47.660;19.622;2023-05-14T14:38:33;16.20;70.70
78297;DHT22;67555;47.660;19.622;2023-05-14T14:40:59;16.20;70.60
78297;DHT22;67555;47.660;19.622;2023-05-14T14:43:27;16.10;70.70
78297;DHT22;67555;47.660;19.622;2023-05-14T14:45:53;16.10;70.80
78297;DHT22;67555;47.660;19.622;2023-05-14T14:50:50;16.10;70.80
78297;DHT22;67555;47.660;19.622;2023-05-14T14:53:17;16.10;70.70
78297;DHT22;67555;47.660;19.622;2023-05-14T14:55:43;16.10;70.90
78297;DHT22;67555;47.660;19.622;2023-05-14T14:58:09;16.10;70.80
78297;DHT22;67555;47.660;19.622;2023-05-14T15:00:34;16.10;70.90
78297;DHT22;67555;47.660;19.622;2023-05-14T15:03:00;16.20;70.90
78297;DHT22;67555;47.660;19.622;2023-05-14T15:05:26;16.20;71.00
78297;DHT22;67555;47.660;19.622;2023-05-14T15:07:51;16.10;71.20
78297;DHT22;67555;47.660;19.622;2023-05-14T15:10:17;16.20;71.30
78297;DHT22;67555;47.660;19.622;2023-05-14T15:12:43;16.20;71.30
78297;DHT22;67555;47.660;19.622;2023-05-14T15:15:09;16.10;71.50
78297;DHT22;67555;47.660;19.622;2023-05-14T15:17:34;16.10;71.60
78297;DHT22;67555;47.660;19.622;2023-05-14T15:20:00;16.10;71.80